sensor_id;sensor_type;location;lat;lon;timestamp;temperature;humidity
41168;DHT22;26906;45.658;9.272;2023-02-03T06:36:04;5.00;99.90
41168;DHT22;26906;45.658;9.272;2023-02-03T06:38:30;5.00;99.90
41168;DHT22;26906;45.658;9.272;2023-02-03T06:40:56;5.00;99.90
41168;DHT22;26906;45.658;9.272;2023-02-03T06:43:22;5.10;99.90
41168;DHT22;26906;45.658;9.272;2023-02-03T06:45:48;5.00;99.90
41168;DHT22;26906;45.658;9.272;2023-02-03T06:48:16;5.30;99.90
41168;DHT22;26906;45.658;9.272;2023-02-03T06:50:43;5.00;99.90
41168;DHT22;26906;45.658;9.272;2023-02-03T06:53:09;5.10;99.90
41168;DHT22;26906;45.658;9.272;2023-02-03T06:55:34;5.40;99.90
41168;DHT22;26906;45.658;9.272;2023-02-03T06:58:00;5.20;99.90
41168;DHT22;26906;45.658;9.272;2023-02-03T07:00:26;5.40;99.90
41168;DHT22;26906;45.658;9.272;2023-02-03T07:02:59;5.40;99.90
41168;DHT22;26906;45.658;9.272;2023-02-03T07:05:26;5.50;99.90
41168;DHT22;26906;45.658;9.272;2023-02-03T07:07:52;5.50;99.90
41168;DHT22;26906;45.658;9.272;2023-02-03T07:10:18;5.50;99.90
41168;DHT22;26906;45.658;9.272;2023-02-03T07:12:44;5.40;99.90
41168;DHT22;26906;45.658;9.272;2023-02-03T07:15:11;5.60;99.90
41168;DHT22;26906;45.658;9.272;2023-02-03T07:17:37;5.40;99.90
41168;DHT22;26906;45.658;9.272;2023-02-03T07:20:03;5.40;99.90
41168;DHT22;26906;45.658;9.272;2023-02-03T07:22:30;5.30;99.90
41168;DHT22;26906;45.658;9.272;2023-02-03T07:24:55;5.40;99.90
41168;DHT22;26906;45.658;9.272;2023-02-03T07:27:21;5.40;99.90
41168;DHT22;26906;45.658;9.272;2023-02-03T07:29:47;5.30;99.90
41168;DHT22;26906;45.658;9.272;2023-02-03T07:32:12;5.40;99.90
41168;DHT22;26906;45.658;9.272;2023-02-03T07:34:41;5.40;99.90
41168;DHT22;26906;45.658;9.272;2023-02-03T07:37:08;5.80;99.90
41168;DHT22;26906;45.658;9.272;2023-02-03T07:39:34;5.50;99.90
41168;DHT22;26906;45.658;9.272;2023-02-03T07:42:01;5.50;99.90
41168;DHT22;26906;45.658;9.272;2023-02-03T07:44:28;5.60;99.90
41168;DHT22;26906;45.658;9.272;2023-02-03T07:46:56;5.70;99.90
41168;DHT22;26906;45.658;9.272;2023-02-03T07:49:22;5.70;99.90
41168;DHT22;26906;45.658;9.272;2023-02-03T07:51:48;5.90;99.90
41168;DHT22;26906;45.658;9.272;2023-02-03T07:54:13;5.90;99.90
41168;DHT22;26906;45.658;9.272;2023-02-03T07:56:41;5.90;99.90
41168;DHT22;26906;45.658;9.272;2023-02-03T07:59:07;5.90;99.90
41168;DHT22;26906;45.658;9.272;2023-02-03T08:01:32;6.00;99.90
41168;DHT22;26906;45.658;9.272;2023-02-03T08:03:58;6.20;99.90
41168;DHT22;26906;45.658;9.272;2023-02-03T08:06:26;6.30;99.90
41168;DHT22;26906;45.658;9.272;2023-02-03T08:08:54;6.40;99.90
41168;DHT22;26906;45.658;9.272;2023-02-03T08:11:22;6.70;99.90
41168;DHT22;26906;45.658;9.272;2023-02-03T08:13:48;6.80;99.90
41168;DHT22;26906;45.658;9.272;2023-02-03T08:16:13;7.00;99.90
41168;DHT22;26906;45.658;9.272;2023-02-03T08:18:39;7.10;99.90
41168;DHT22;26906;45.658;9.272;2023-02-03T08:21:05;7.10;99.90
41168;DHT22;26906;45.658;9.272;2023-02-03T08:23:30;7.30;99.90
41168;DHT22;26906;45.658;9.272;2023-02-03T08:25:56;7.50;99.90
41168;DHT22;26906;45.658;9.272;2023-02-03T08:28:22;7.60;99.90
41168;DHT22;26906;45.658;9.272;2023-02-03T08:30:47;7.70;99.90
41168;DHT22;26906;45.658;9.272;2023-02-03T08:33:13;7.80;99.90
41168;DHT22;26906;45.658;9.272;2023-02-03T08:35:39;8.10;99.90
41168;DHT22;26906;45.658;9.272;2023-02-03T08:38:05;7.90;99.90
41168;DHT22;26906;45.658;9.272;2023-02-03T08:40:32;8.20;99.90
41168;DHT22;26906;45.658;9.272;2023-02-03T08:42:58;8.40;99.90
41168;DHT22;26906;45.658;9.272;2023-02-03T08:45:23;8.50;99.90
41168;DHT22;26906;45.658;9.272;2023-02-03T08:47:49;8.70;99.90
41168;DHT22;26906;45.658;9.272;2023-02-03T08:50:15;8.70;99.90
41168;DHT22;26906;45.658;9.272;2023-02-03T08:52:41;8.90;99.90
41168;DHT22;26906;45.658;9.272;2023-02-03T08:55:07;9.00;99.90
41168;DHT22;26906;45.658;9.272;2023-02-03T08:57:35;9.10;99.90
41168;DHT22;26906;45.658;9.272;2023-02-03T09:00:01;9.20;99.90
41168;DHT22;26906;45.658;9.272;2023-02-03T09:02:28;9.40;99.90
41168;DHT22;26906;45.658;9.272;2023-02-03T09:04:53;9.70;99.90
41168;DHT22;26906;45.658;9.272;2023-02-03T09:07:19;9.70;99.90
41168;DHT22;26906;45.658;9.272;2023-02-03T09:09:45;9.80;99.90
41168;DHT22;26906;45.658;9.272;2023-02-03T09:12:11;9.90;99.90
41168;DHT22;26906;45.658;9.272;2023-02-03T09:14:37;10.10;99.90
41168;DHT22;26906;45.658;9.272;2023-02-03T09:17:04;10.20;99.90
41168;DHT22;26906;45.658;9.272;2023-02-03T09:19:32;10.20;99.90
41168;DHT22;26906;45.658;9.272;2023-02-03T09:21:58;10.30;99.90
41168;DHT22;26906;45.658;9.272;2023-02-03T09:24:24;10.40;99.90
41168;DHT22;26906;45.658;9.272;2023-02-03T09:26:49;10.50;99.90
41168;DHT22;26906;45.658;9.272;2023-02-03T09:29:15;10.60;99.90
41168;DHT22;26906;45.658;9.272;2023-02-03T09:31:41;10.70;99.90
41168;DHT22;26906;45.658;9.272;2023-02-03T09:34:08;10.80;99.90
41168;DHT22;26906;45.658;9.272;2023-02-03T09:36:35;10.90;99.90
41168;DHT22;26906;45.658;9.272;2023-02-03T09:39:02;11.10;99.90
41168;DHT22;26906;45.658;9.272;2023-02-03T09:46:53;11.40;99.90
41168;DHT22;26906;45.658;9.272;2023-02-03T09:49:28;11.60;99.90
41168;DHT22;26906;45.658;9.272;2023-02-03T09:52:14;11.90;99.90
41168;DHT22;26906;45.658;9.272;2023-02-03T09:57:21;11.80;99.90
41168;DHT22;26906;45.658;9.272;2023-02-03T09:59:48;11.80;99.90
41168;DHT22;26906;45.658;9.272;2023-02-03T10:19:24;12.30;99.90
41168;DHT22;26906;45.658;9.272;2023-02-03T10:21:58;12.50;99.90
41168;DHT22;26906;45.658;9.272;2023-02-03T10:24:52;12.60;99.90
41168;DHT22;26906;45.658;9.272;2023-02-03T10:27:22;12.70;99.90
41168;DHT22;26906;45.658;9.272;2023-02-03T10:30:05;12.70;99.90
41168;DHT22;26906;45.658;9.272;2023-02-03T10:32:35;12.80;99.90
41168;DHT22;26906;45.658;9.272;2023-02-03T10:35:04;12.60;99.90
41168;DHT22;26906;45.658;9.272;2023-02-03T10:37:37;12.60;99.90
41168;DHT22;26906;45.658;9.272;2023-02-03T10:40:14;12.60;99.90
41168;DHT22;26906;45.658;9.272;2023-02-03T10:42:43;12.70;99.90
41168;DHT22;26906;45.658;9.272;2023-02-03T10:45:32;12.60;99.90
41168;DHT22;26906;45.658;9.272;2023-02-03T10:48:01;12.50;99.90
41168;DHT22;26906;45.658;9.272;2023-02-03T10:50:28;12.50;99.90
41168;DHT22;26906;45.658;9.272;2023-02-03T10:55:43;12.70;99.90
41168;DHT22;26906;45.658;9.272;2023-02-03T10:58:16;12.90;99.90
41168;DHT22;26906;45.658;9.272;2023-02-03T11:00:43;13.20;99.90
41168;DHT22;26906;45.658;9.272;2023-02-03T11:03:20;13.30;99.90
41168;DHT22;26906;45.658;9.272;2023-02-03T11:05:46;13.40;99.90
41168;DHT22;26906;45.658;9.272;2023-02-03T11:08:14;13.40;99.90
41168;DHT22;26906;45.658;9.272;2023-02-03T11:10:40;13.60;99.90
41168;DHT22;26906;45.658;9.272;2023-02-03T11:13:17;13.60;99.90
41168;DHT22;26906;45.658;9.272;2023-02-03T11:15:57;13.70;99.90
41168;DHT22;26906;45.658;9.272;2023-02-03T11:18:55;13.90;99.90
41168;DHT22;26906;45.658;9.272;2023-02-03T11:21:25;13.90;99.90
41168;DHT22;26906;45.658;9.272;2023-02-03T11:24:01;14.00;99.90
41168;DHT22;26906;45.658;9.272;2023-02-03T11:27:16;14.10;99.90
41168;DHT22;26906;45.658;9.272;2023-02-03T11:31:54;14.30;99.90
41168;DHT22;26906;45.658;9.272;2023-02-03T11:36:54;14.50;99.90
41168;DHT22;26906;45.658;9.272;2023-02-03T11:39:28;14.50;99.90
41168;DHT22;26906;45.658;9.272;2023-02-03T11:42:00;14.60;99.90
41168;DHT22;26906;45.658;9.272;2023-02-03T11:44:27;14.40;99.90
41168;DHT22;26906;45.658;9.272;2023-02-03T11:47:07;14.40;99.90
41168;DHT22;26906;45.658;9.272;2023-02-03T12:00:17;14.90;99.90
41168;DHT22;26906;45.658;9.272;2023-02-03T12:17:20;15.40;99.90
41168;DHT22;26906;45.658;9.272;2023-02-03T12:19:55;15.50;99.90
41168;DHT22;26906;45.658;9.272;2023-02-03T12:30:48;15.70;99.90
41168;DHT22;26906;45.658;9.272;2023-02-03T12:33:23;15.80;99.90
41168;DHT22;26906;45.658;9.272;2023-02-03T12:36:18;15.80;99.90
41168;DHT22;26906;45.658;9.272;2023-02-03T12:39:05;16.00;99.90
41168;DHT22;26906;45.658;9.272;2023-02-03T12:41:37;16.10;99.90
41168;DHT22;26906;45.658;9.272;2023-02-03T12:44:10;16.10;99.90
41168;DHT22;26906;45.658;9.272;2023-02-03T12:46:43;16.10;99.90
41168;DHT22;26906;45.658;9.272;2023-02-03T12:49:42;16.30;99.90
41168;DHT22;26906;45.658;9.272;2023-02-03T12:52:39;16.30;99.40
41168;DHT22;26906;45.658;9.272;2023-02-03T12:57:58;16.40;99.60
41168;DHT22;26906;45.658;9.272;2023-02-03T13:03:31;16.40;98.90
41168;DHT22;26906;45.658;9.272;2023-02-03T13:06:14;16.40;98.20
41168;DHT22;26906;45.658;9.272;2023-02-03T13:08:54;16.20;98.20
41168;DHT22;26906;45.658;9.272;2023-02-03T13:17:46;16.60;97.80
41168;DHT22;26906;45.658;9.272;2023-02-03T13:20:21;16.70;97.60
41168;DHT22;26906;45.658;9.272;2023-02-03T13:22:49;16.80;97.20
41168;DHT22;26906;45.658;9.272;2023-02-03T13:41:51;16.90;95.90
41168;DHT22;26906;45.658;9.272;2023-02-03T13:44:24;16.90;95.70
41168;DHT22;26906;45.658;9.272;2023-02-03T13:46:55;16.80;95.50
41168;DHT22;26906;45.658;9.272;2023-02-03T13:49:28;16.70;95.20
41168;DHT22;26906;45.658;9.272;2023-02-03T13:51:55;16.70;95.60
41168;DHT22;26906;45.658;9.272;2023-02-03T13:54:31;16.70;95.70
41168;DHT22;26906;45.658;9.272;2023-02-03T13:56:59;16.80;95.60
41168;DHT22;26906;45.658;9.272;2023-02-03T14:07:33;17.10;96.20
41168;DHT22;26906;45.658;9.272;2023-02-03T14:10:14;17.10;95.90
41168;DHT22;26906;45.658;9.272;2023-02-03T14:17:56;17.10;95.40
41168;DHT22;26906;45.658;9.272;2023-02-03T14:25:30;17.30;94.90
41168;DHT22;26906;45.658;9.272;2023-02-03T14:28:02;17.20;95.10
41168;DHT22;26906;45.658;9.272;2023-02-03T14:30:30;17.30;94.70
41168;DHT22;26906;45.658;9.272;2023-02-03T14:32:58;17.10;95.30
41168;DHT22;26906;45.658;9.272;2023-02-03T14:35:38;17.10;94.90
41168;DHT22;26906;45.658;9.272;2023-02-03T14:38:13;17.10;95.00
41168;DHT22;26906;45.658;9.272;2023-02-03T14:40:59;17.20;94.70
41168;DHT22;26906;45.658;9.272;2023-02-03T14:49:07;17.10;95.50
41168;DHT22;26906;45.658;9.272;2023-02-03T14:52:11;17.10;95.60
41168;DHT22;26906;45.658;9.272;2023-02-03T14:57:59;17.20;98.50
41168;DHT22;26906;45.658;9.272;2023-02-03T15:00:31;17.20;95.90
41168;DHT22;26906;45.658;9.272;2023-02-03T15:08:28;17.10;96.00
41168;DHT22;26906;45.658;9.272;2023-02-03T15:10:50;16.80;96.00
41168;DHT22;26906;45.658;9.272;2023-02-03T15:13:27;16.80;96.40
41168;DHT22;26906;45.658;9.272;2023-02-03T15:16:03;16.50;96.30
41168;DHT22;26906;45.658;9.272;2023-02-03T15:18:33;16.30;96.80
41168;DHT22;26906;45.658;9.272;2023-02-03T15:21:00;16.30;97.00
41168;DHT22;26906;45.658;9.272;2023-02-03T15:23:29;16.10;97.20
41168;DHT22;26906;45.658;9.272;2023-02-03T15:26:02;16.00;97.60
41168;DHT22;26906;45.658;9.272;2023-02-03T15:28:29;15.90;97.90
41168;DHT22;26906;45.658;9.272;2023-02-03T15:31:15;15.90;98.10
41168;DHT22;26906;45.658;9.272;2023-02-03T15:33:43;15.80;98.40
41168;DHT22;26906;45.658;9.272;2023-02-03T15:36:22;15.60;98.60
41168;DHT22;26906;45.658;9.272;2023-02-03T15:39:00;15.50;98.80
41168;DHT22;26906;45.658;9.272;2023-02-03T15:41:32;15.40;98.90
41168;DHT22;26906;45.658;9.272;2023-02-03T15:44:02;15.30;99.10
41168;DHT22;26906;45.658;9.272;2023-02-03T15:49:12;15.10;99.60
41168;DHT22;26906;45.658;9.272;2023-02-03T15:51:55;15.00;99.80
41168;DHT22;26906;45.658;9.272;2023-02-03T15:54:42;15.00;99.80
41168;DHT22;26906;45.658;9.272;2023-02-03T15:57:33;14.90;99.90
41168;DHT22;26906;45.658;9.272;2023-02-03T16:00:28;14.80;99.90
41168;DHT22;26906;45.658;9.272;2023-02-03T16:02:56;14.70;99.90
41168;DHT22;26906;45.658;9.272;2023-02-03T16:05:26;14.60;99.90
41168;DHT22;26906;45.658;9.272;2023-02-03T16:07:53;14.60;99.90
41168;DHT22;26906;45.658;9.272;2023-02-03T16:10:28;14.50;99.90
41168;DHT22;26906;45.658;9.272;2023-02-03T16:13:24;14.50;99.90
41168;DHT22;26906;45.658;9.272;2023-02-03T16:16:14;14.40;99.90
41168;DHT22;26906;45.658;9.272;2023-02-03T16:18:52;14.30;99.90
41168;DHT22;26906;45.658;9.272;2023-02-03T16:23:56;14.20;99.90
41168;DHT22;26906;45.658;9.272;2023-02-03T16:26:26;14.10;99.90
41168;DHT22;26906;45.658;9.272;2023-02-03T16:31:48;13.90;99.90
41168;DHT22;26906;45.658;9.272;2023-02-03T16:34:34;13.90;99.90
41168;DHT22;26906;45.658;9.272;2023-02-03T16:40:17;13.70;99.90
41168;DHT22;26906;45.658;9.272;2023-02-03T16:43:07;13.50;99.90
41168;DHT22;26906;45.658;9.272;2023-02-03T16:45:55;13.40;99.90
41168;DHT22;26906;45.658;9.272;2023-02-03T16:48:41;13.40;99.90
41168;DHT22;26906;45.658;9.272;2023-02-03T16:51:31;13.30;99.90
41168;DHT22;26906;45.658;9.272;2023-02-03T16:53:59;13.20;99.90
41168;DHT22;26906;45.658;9.272;2023-02-03T16:56:24;13.10;99.90
41168;DHT22;26906;45.658;9.272;2023-02-03T16:58:50;13.10;99.90
41168;DHT22;26906;45.658;9.272;2023-02-03T17:01:18;13.00;99.90
41168;DHT22;26906;45.658;9.272;2023-02-03T17:03:44;13.00;99.90
41168;DHT22;26906;45.658;9.272;2023-02-03T17:06:11;12.80;99.90
41168;DHT22;26906;45.658;9.272;2023-02-03T17:08:39;12.80;99.90
41168;DHT22;26906;45.658;9.272;2023-02-03T17:11:16;12.70;99.90
41168;DHT22;26906;45.658;9.272;2023-02-03T17:13:45;12.60;99.90
41168;DHT22;26906;45.658;9.272;2023-02-03T17:16:18;12.60;99.90
41168;DHT22;26906;45.658;9.272;2023-02-03T17:18:45;12.60;99.90
41168;DHT22;26906;45.658;9.272;2023-02-03T17:21:13;12.70;99.90
41168;DHT22;26906;45.658;9.272;2023-02-03T17:23:40;12.70;99.90
41168;DHT22;26906;45.658;9.272;2023-02-03T17:26:06;12.70;99.90
41168;DHT22;26906;45.658;9.272;2023-02-03T17:28:32;12.60;99.90
41168;DHT22;26906;45.658;9.272;2023-02-03T17:31:00;12.60;99.90
41168;DHT22;26906;45.658;9.272;2023-02-03T17:33:28;12.70;99.90
41168;DHT22;26906;45.658;9.272;2023-02-03T17:36:16;12.60;99.90
41168;DHT22;26906;45.658;9.272;2023-02-03T17:38:45;12.60;99.90
41168;DHT22;26906;45.658;9.272;2023-02-03T17:41:17;12.60;99.90
41168;DHT22;26906;45.658;9.272;2023-02-03T17:43:46;12.50;99.90
41168;DHT22;26906;45.658;9.272;2023-02-03T17:46:19;12.50;99.90
41168;DHT22;26906;45.658;9.272;2023-02-03T17:48:46;12.40;99.90
41168;DHT22;26906;45.658;9.272;2023-02-03T17:51:18;12.40;99.90
41168;DHT22;26906;45.658;9.272;2023-02-03T17:53:45;12.20;99.90
41168;DHT22;26906;45.658;9.272;2023-02-03T17:58:39;12.20;99.90
41168;DHT22;26906;45.658;9.272;2023-02-03T18:01:10;12.20;99.90
41168;DHT22;26906;45.658;9.272;2023-02-03T18:03:49;12.20;99.90
41168;DHT22;26906;45.658;9.272;2023-02-03T18:06:19;12.10;99.90
41168;DHT22;26906;45.658;9.272;2023-02-03T18:08:46;12.00;99.90
41168;DHT22;26906;45.658;9.272;2023-02-03T18:11:13;11.90;99.90
41168;DHT22;26906;45.658;9.272;2023-02-03T18:13:40;11.70;99.90
41168;DHT22;26906;45.658;9.272;2023-02-03T18:16:09;11.60;99.90
41168;DHT22;26906;45.658;9.272;2023-02-03T18:18:35;11.60;99.90
41168;DHT22;26906;45.658;9.272;2023-02-03T18:21:07;11.70;99.90
41168;DHT22;26906;45.658;9.272;2023-02-03T18:23:35;11.50;99.90
41168;DHT22;26906;45.658;9.272;2023-02-03T18:26:06;11.30;99.90
41168;DHT22;26906;45.658;9.272;2023-02-03T18:28:33;11.30;99.90
41168;DHT22;26906;45.658;9.272;2023-02-03T18:31:04;11.40;99.90
41168;DHT22;26906;45.658;9.272;2023-02-03T18:33:30;11.40;99.90
41168;DHT22;26906;45.658;9.272;2023-02-03T18:35:57;11.30;99.90
41168;DHT22;26906;45.658;9.272;2023-02-03T18:38:24;11.10;99.90
41168;DHT22;26906;45.658;9.272;2023-02-03T18:40:49;11.00;99.90
41168;DHT22;26906;45.658;9.272;2023-02-03T18:43:15;10.90;99.90
41168;DHT22;26906;45.658;9.272;2023-02-03T18:45:47;10.90;99.90
41168;DHT22;26906;45.658;9.272;2023-02-03T18:48:13;10.90;99.90
41168;DHT22;26906;45.658;9.272;2023-02-03T18:50:42;10.80;99.90
41168;DHT22;26906;45.658;9.272;2023-02-03T18:53:08;10.80;99.90
41168;DHT22;26906;45.658;9.272;2023-02-03T18:55:39;10.80;99.90
41168;DHT22;26906;45.658;9.272;2023-02-03T18:58:04;10.70;99.90
41168;DHT22;26906;45.658;9.272;2023-02-03T19:00:31;10.60;99.90
41168;DHT22;26906;45.658;9.272;2023-02-03T19:02:57;10.50;99.90
41168;DHT22;26906;45.658;9.272;2023-02-03T19:05:23;10.50;99.90
41168;DHT22;26906;45.658;9.272;2023-02-03T19:07:48;10.50;99.90
41168;DHT22;26906;45.658;9.272;2023-02-03T19:10:15;10.50;99.90
41168;DHT22;26906;45.658;9.272;2023-02-03T19:12:46;10.40;99.90
41168;DHT22;26906;45.658;9.272;2023-02-03T19:15:12;10.50;99.90
41168;DHT22;26906;45.658;9.272;2023-02-03T19:17:41;10.40;99.90
41168;DHT22;26906;45.658;9.272;2023-02-03T19:20:07;10.40;99.90
41168;DHT22;26906;45.658;9.272;2023-02-03T19:22:33;10.50;99.90
41168;DHT22;26906;45.658;9.272;2023-02-03T19:24:58;10.40;99.90
41168;DHT22;26906;45.658;9.272;2023-02-03T19:27:24;10.40;99.90
41168;DHT22;26906;45.658;9.272;2023-02-03T19:29:50;10.30;99.90
41168;DHT22;26906;45.658;9.272;2023-02-03T19:32:17;10.30;99.90
41168;DHT22;26906;45.658;9.272;2023-02-03T19:34:43;10.50;99.90
41168;DHT22;26906;45.658;9.272;2023-02-03T19:37:10;10.40;99.90
41168;DHT22;26906;45.658;9.272;2023-02-03T19:39:35;10.50;99.90
41168;DHT22;26906;45.658;9.272;2023-02-03T19:42:01;10.40;99.90
41168;DHT22;26906;45.658;9.272;2023-02-03T19:44:29;10.40;99.90
41168;DHT22;26906;45.658;9.272;2023-02-03T19:46:57;10.30;99.90
41168;DHT22;26906;45.658;9.272;2023-02-03T19:49:23;10.10;99.90
41168;DHT22;26906;45.658;9.272;2023-02-03T19:51:49;10.10;99.90
41168;DHT22;26906;45.658;9.272;2023-02-03T19:54:17;10.10;99.90
41168;DHT22;26906;45.658;9.272;2023-02-03T19:56:43;10.10;99.90
41168;DHT22;26906;45.658;9.272;2023-02-03T19:59:10;10.10;99.90
41168;DHT22;26906;45.658;9.272;2023-02-03T20:01:36;10.10;99.90
41168;DHT22;26906;45.658;9.272;2023-02-03T20:04:04;10.10;99.90
41168;DHT22;26906;45.658;9.272;2023-02-03T20:06:30;10.20;99.90
41168;DHT22;26906;45.658;9.272;2023-02-03T20:08:58;10.30;99.90
41168;DHT22;26906;45.658;9.272;2023-02-03T20:11:24;10.40;99.90
41168;DHT22;26906;45.658;9.272;2023-02-03T20:13:50;10.30;99.90
41168;DHT22;26906;45.658;9.272;2023-02-03T20:16:17;10.20;99.90
41168;DHT22;26906;45.658;9.272;2023-02-03T20:18:42;10.30;99.90
41168;DHT22;26906;45.658;9.272;2023-02-03T20:21:08;10.20;99.90
41168;DHT22;26906;45.658;9.272;2023-02-03T20:23:35;10.10;99.90
41168;DHT22;26906;45.658;9.272;2023-02-03T20:26:01;10.10;99.90
41168;DHT22;26906;45.658;9.272;2023-02-03T20:28:27;10.00;99.90
41168;DHT22;26906;45.658;9.272;2023-02-03T20:30:55;9.90;99.90
41168;DHT22;26906;45.658;9.272;2023-02-03T20:33:23;10.20;99.90
41168;DHT22;26906;45.658;9.272;2023-02-03T20:35:49;10.20;99.90
41168;DHT22;26906;45.658;9.272;2023-02-03T20:38:15;10.30;99.90
41168;DHT22;26906;45.658;9.272;2023-02-03T20:40:41;10.20;99.90
41168;DHT22;26906;45.658;9.272;2023-02-03T20:43:22;10.10;99.90
41168;DHT22;26906;45.658;9.272;2023-02-03T20:45:49;10.10;99.90
41168;DHT22;26906;45.658;9.272;2023-02-03T20:48:18;10.10;99.90
41168;DHT22;26906;45.658;9.272;2023-02-03T20:50:48;10.10;99.90
41168;DHT22;26906;45.658;9.272;2023-02-03T20:53:32;10.10;99.90
41168;DHT22;26906;45.658;9.272;2023-02-03T20:55:59;10.00;99.90
41168;DHT22;26906;45.658;9.272;2023-02-03T20:58:32;10.10;99.90
41168;DHT22;26906;45.658;9.272;2023-02-03T21:00:58;10.10;99.90
41168;DHT22;26906;45.658;9.272;2023-02-03T21:03:24;10.10;99.90
41168;DHT22;26906;45.658;9.272;2023-02-03T21:06:19;10.20;99.90
41168;DHT22;26906;45.658;9.272;2023-02-03T21:08:46;10.10;99.90
41168;DHT22;26906;45.658;9.272;2023-02-03T21:11:16;10.10;99.90
41168;DHT22;26906;45.658;9.272;2023-02-03T21:13:43;10.10;99.90
41168;DHT22;26906;45.658;9.272;2023-02-03T21:16:24;10.20;99.90
41168;DHT22;26906;45.658;9.272;2023-02-03T21:18:54;10.30;99.90
41168;DHT22;26906;45.658;9.272;2023-02-03T21:21:35;10.30;99.90
41168;DHT22;26906;45.658;9.272;2023-02-03T21:24:26;10.40;99.90
41168;DHT22;26906;45.658;9.272;2023-02-03T21:26:52;10.20;99.90
41168;DHT22;26906;45.658;9.272;2023-02-03T21:29:28;10.20;99.90
41168;DHT22;26906;45.658;9.272;2023-02-03T21:31:54;10.10;99.90
41168;DHT22;26906;45.658;9.272;2023-02-03T21:34:30;10.10;99.90
41168;DHT22;26906;45.658;9.272;2023-02-03T21:36:59;10.20;99.90
41168;DHT22;26906;45.658;9.272;2023-02-03T21:39:33;10.30;99.90
41168;DHT22;26906;45.658;9.272;2023-02-03T21:42:26;10.30;99.90
41168;DHT22;26906;45.658;9.272;2023-02-03T21:47:40;10.20;99.90
41168;DHT22;26906;45.658;9.272;2023-02-03T21:55:27;10.00;99.90
41168;DHT22;26906;45.658;9.272;2023-02-03T21:57:53;10.00;99.90
41168;DHT22;26906;45.658;9.272;2023-02-03T22:00:41;10.00;99.90
41168;DHT22;26906;45.658;9.272;2023-02-03T22:03:30;10.00;99.90
